createdAt,value
2023-04-19T00:00:00.767Z,9.99
2023-04-19T00:02:29.071Z,9.84
2023-04-19T00:04:57.876Z,9.85
2023-04-19T00:07:26.414Z,9.91
2023-04-19T00:09:55.073Z,9.87
2023-04-19T00:12:24.551Z,9.71
2023-04-19T00:14:52.760Z,9.74
2023-04-19T00:17:21.836Z,9.71
2023-04-19T00:19:49.935Z,9.71
2023-04-19T00:22:18.433Z,9.63
2023-04-19T00:24:47.093Z,9.53
2023-04-19T00:27:15.161Z,9.55
2023-04-19T00:29:45.567Z,9.58
2023-04-19T00:32:13.663Z,9.61
2023-04-19T00:34:42.699Z,9.48
2023-04-19T00:37:11.554Z,9.50
2023-04-19T00:39:40.492Z,9.48
2023-04-19T00:42:08.909Z,9.46
2023-04-19T00:44:37.015Z,9.42
2023-04-19T00:47:07.057Z,9.44
2023-04-19T00:49:36.217Z,9.39
2023-04-19T00:52:04.386Z,9.36
2023-04-19T00:54:34.178Z,9.25
2023-04-19T00:57:03.420Z,9.19
2023-04-19T00:59:32.319Z,9.25
2023-04-19T01:02:00.504Z,9.19
2023-04-19T01:04:33.385Z,9.18
2023-04-19T01:07:03.981Z,9.14
2023-04-19T01:09:32.889Z,9.02
2023-04-19T01:12:02.038Z,9.02
2023-04-19T01:14:30.542Z,8.95
2023-04-19T01:16:59.216Z,8.94
2023-04-19T01:19:28.439Z,8.89
2023-04-19T01:22:00.308Z,8.87
2023-04-19T01:24:29.585Z,8.81
2023-04-19T01:26:57.580Z,8.88
2023-04-19T01:29:26.832Z,8.87
2023-04-19T01:31:54.891Z,8.81
2023-04-19T01:34:24.291Z,8.94
2023-04-19T01:36:52.737Z,8.85
2023-04-19T01:39:21.147Z,8.78
2023-04-19T01:41:50.995Z,8.81
2023-04-19T01:44:19.072Z,8.87
2023-04-19T01:46:47.056Z,9.01
2023-04-19T01:49:16.592Z,9.04
2023-04-19T01:51:44.561Z,9.07
2023-04-19T01:54:13.152Z,9.05
2023-04-19T01:56:41.698Z,9.04
2023-04-19T01:59:12.553Z,9.07
2023-04-19T02:01:41.581Z,9.02
2023-04-19T02:04:10.106Z,9.01
2023-04-19T02:06:38.405Z,9.02
2023-04-19T02:09:06.461Z,8.95
2023-04-19T02:11:35.482Z,8.88
2023-04-19T02:14:03.505Z,8.89
2023-04-19T02:16:35.875Z,8.84
2023-04-19T02:19:04.363Z,8.88
2023-04-19T02:21:32.894Z,8.75
2023-04-19T02:24:02.106Z,8.74
2023-04-19T02:26:30.129Z,8.70
2023-04-19T02:28:59.056Z,8.66
2023-04-19T02:31:27.134Z,8.68
2023-04-19T02:33:57.374Z,8.70
2023-04-19T02:36:28.976Z,8.68
2023-04-19T02:39:19.499Z,8.54
2023-04-19T02:41:47.529Z,8.49
2023-04-19T02:44:15.709Z,8.49
2023-04-19T02:46:50.340Z,8.40
2023-04-19T02:49:20.750Z,8.35
2023-04-19T02:51:49.030Z,8.22
2023-04-19T02:54:18.012Z,8.05
2023-04-19T02:56:47.084Z,8.02
2023-04-19T02:59:17.349Z,7.93
2023-04-19T03:01:46.522Z,7.87
2023-04-19T03:04:15.811Z,7.90
2023-04-19T03:06:45.798Z,7.87
2023-04-19T03:09:14.789Z,7.90
2023-04-19T03:11:43.584Z,7.76
2023-04-19T03:14:11.561Z,7.78
2023-04-19T03:16:39.758Z,7.77
2023-04-19T03:19:08.643Z,7.84
2023-04-19T03:21:42.347Z,7.83
2023-04-19T03:24:13.078Z,7.80
2023-04-19T03:26:46.086Z,7.74
2023-04-19T03:29:15.367Z,7.71
2023-04-19T03:31:51.575Z,7.71
2023-04-19T03:34:20.470Z,7.63
2023-04-19T03:36:50.244Z,7.41
2023-04-19T03:39:21.786Z,7.34
2023-04-19T03:41:53.620Z,7.32
2023-04-19T03:44:41.414Z,7.18
2023-04-19T03:47:10.860Z,7.17
2023-04-19T03:49:44.936Z,7.05
2023-04-19T03:52:14.751Z,6.97
2023-04-19T03:54:44.519Z,6.97
2023-04-19T03:57:26.558Z,6.79
2023-04-19T03:59:56.477Z,6.84
2023-04-19T04:02:24.992Z,6.68
2023-04-19T04:04:56.589Z,6.65
2023-04-19T04:07:25.907Z,6.66
2023-04-19T04:09:56.920Z,6.57
2023-04-19T04:12:25.147Z,6.63
2023-04-19T04:14:55.251Z,6.62
2023-04-19T04:17:24.987Z,6.59
2023-04-19T04:19:53.428Z,6.57
2023-04-19T04:22:25.329Z,6.53
2023-04-19T04:24:54.495Z,6.53
2023-04-19T04:27:28.293Z,6.49
2023-04-19T04:29:57.985Z,6.45
2023-04-19T04:32:26.066Z,6.41
2023-04-19T04:35:00.320Z,6.37
2023-04-19T04:37:44.076Z,6.34
2023-04-19T04:40:15.490Z,6.24
2023-04-19T04:42:45.612Z,6.22
2023-04-19T04:45:18.776Z,6.11
2023-04-19T04:47:47.420Z,6.18
2023-04-19T04:50:16.651Z,6.13
2023-04-19T04:52:45.890Z,6.07
2023-04-19T04:55:22.498Z,6.10
2023-04-19T04:57:51.922Z,6.03
2023-04-19T05:00:30.378Z,5.86
2023-04-19T05:03:03.323Z,5.85
2023-04-19T05:05:35.027Z,5.87
2023-04-19T05:08:04.042Z,5.93
2023-04-19T05:10:32.530Z,5.89
2023-04-19T05:13:04.170Z,5.80
2023-04-19T05:15:33.186Z,5.94
2023-04-19T05:18:01.286Z,5.96
2023-04-19T05:20:49.862Z,5.89
2023-04-19T05:23:22.705Z,5.96
2023-04-19T05:25:52.835Z,5.87
2023-04-19T05:28:24.013Z,5.89
2023-04-19T05:31:13.960Z,5.90
2023-04-19T05:33:57.513Z,5.90
2023-04-19T05:36:26.897Z,6.09
2023-04-19T05:38:55.115Z,6.06
2023-04-19T05:41:24.196Z,6.04
2023-04-19T05:43:53.468Z,6.10
2023-04-19T05:46:22.614Z,6.10
2023-04-19T05:48:51.252Z,6.11
2023-04-19T05:51:28.311Z,6.10
2023-04-19T05:54:02.628Z,6.16
2023-04-19T05:56:50.437Z,6.11
2023-04-19T05:59:20.898Z,6.27
2023-04-19T06:01:49.420Z,6.25
2023-04-19T06:04:18.652Z,6.28
2023-04-19T06:06:49.836Z,6.29
2023-04-19T06:09:18.514Z,6.41
2023-04-19T06:11:50.749Z,6.38
2023-04-19T06:14:21.813Z,6.39
2023-04-19T06:16:50.076Z,6.57
2023-04-19T06:19:18.464Z,6.59
2023-04-19T06:21:47.682Z,6.73
2023-04-19T06:24:15.794Z,6.93
2023-04-19T06:26:45.316Z,6.83
2023-04-19T06:29:13.250Z,6.59
2023-04-19T06:31:43.526Z,6.75
2023-04-19T06:34:11.447Z,6.79
2023-04-19T06:36:39.884Z,7.08
2023-04-19T06:39:08.314Z,6.97
2023-04-19T06:41:36.271Z,6.76
2023-04-19T06:44:04.262Z,6.81
2023-04-19T06:46:33.233Z,6.94
2023-04-19T06:49:02.815Z,6.90
2023-04-19T06:51:31.070Z,7.00
2023-04-19T06:53:59.387Z,7.04
2023-04-19T06:56:45.620Z,7.04
2023-04-19T06:59:16.924Z,7.15
2023-04-19T07:01:47.123Z,7.18
2023-04-19T07:04:17.701Z,7.22
2023-04-19T07:06:49.943Z,7.24
2023-04-19T07:09:19.676Z,7.24
2023-04-19T07:11:48.893Z,7.18
2023-04-19T07:14:17.061Z,7.05
2023-04-19T07:16:45.886Z,7.24
2023-04-19T07:19:14.422Z,7.36
2023-04-19T07:21:46.173Z,7.55
2023-04-19T07:24:14.482Z,7.66
2023-04-19T07:26:42.832Z,7.77
2023-04-19T07:29:14.250Z,7.87
2023-04-19T07:31:43.419Z,7.93
2023-04-19T07:34:12.201Z,7.98
2023-04-19T07:36:40.214Z,8.21
2023-04-19T07:39:09.930Z,8.29
2023-04-19T07:41:37.850Z,8.45
2023-04-19T07:44:05.887Z,8.57
2023-04-19T07:46:35.786Z,8.74
2023-04-19T07:49:04.379Z,8.71
2023-04-19T07:51:32.407Z,9.01
2023-04-19T07:54:01.407Z,9.11
2023-04-19T07:56:31.071Z,8.66
2023-04-19T07:59:07.438Z,8.68
2023-04-19T08:01:37.493Z,8.91
2023-04-19T08:04:05.852Z,8.28
2023-04-19T08:06:35.219Z,8.45
2023-04-19T08:09:03.125Z,8.73
2023-04-19T08:11:32.956Z,8.83
2023-04-19T08:14:28.453Z,8.60
2023-04-19T08:19:23.174Z,9.57
2023-04-19T08:21:51.123Z,9.51
2023-04-19T08:24:19.985Z,9.70
2023-04-19T08:26:53.846Z,9.28
2023-04-19T08:29:23.744Z,9.71
2023-04-19T08:31:51.758Z,9.82
2023-04-19T08:34:20.388Z,9.69
2023-04-19T08:36:59.983Z,9.77
2023-04-19T08:39:33.663Z,9.91
2023-04-19T08:42:13.300Z,9.84
2023-04-19T08:45:13.690Z,10.16
2023-04-19T08:50:30.876Z,10.67
2023-04-19T08:55:35.213Z,10.36
2023-04-19T08:58:09.641Z,10.88
2023-04-19T09:00:41.399Z,10.79
2023-04-19T09:03:10.185Z,10.43
2023-04-19T09:05:38.571Z,10.41
2023-04-19T09:08:24.164Z,10.72
2023-04-19T09:10:57.129Z,10.67
2023-04-19T09:13:27.880Z,10.29
2023-04-19T09:15:57.148Z,10.56
2023-04-19T09:18:26.045Z,10.98
2023-04-19T09:20:57.768Z,10.71
2023-04-19T09:23:27.049Z,10.23
2023-04-19T09:28:30.448Z,11.20
2023-04-19T09:31:15.344Z,11.37
2023-04-19T09:33:50.255Z,11.11
2023-04-19T09:36:28.975Z,11.26
2023-04-19T09:38:58.380Z,11.03
2023-04-19T09:41:26.483Z,11.29
2023-04-19T09:44:47.384Z,11.57
2023-04-19T09:46:59.391Z,11.72
2023-04-19T09:49:41.596Z,11.58
2023-04-19T09:52:15.671Z,11.48
2023-04-19T09:54:44.486Z,11.54
2023-04-19T09:57:13.253Z,11.53
2023-04-19T09:59:42.596Z,11.53
2023-04-19T10:02:13.433Z,11.57
2023-04-19T10:04:57.405Z,11.82
2023-04-19T10:07:33.117Z,11.99
2023-04-19T10:10:16.090Z,11.96
2023-04-19T10:15:25.938Z,12.24
2023-04-19T10:17:56.101Z,12.32
2023-04-19T10:20:28.026Z,12.48
2023-04-19T10:22:57.068Z,12.26
2023-04-19T10:25:31.321Z,12.30
2023-04-19T10:27:59.569Z,12.37
2023-04-19T10:30:29.548Z,12.60
2023-04-19T10:32:59.127Z,12.78
2023-04-19T10:35:30.687Z,13.23
2023-04-19T10:38:10.230Z,12.96
2023-04-19T10:40:58.103Z,12.85
2023-04-19T10:43:47.587Z,12.72
2023-04-19T10:46:38.655Z,13.12
2023-04-19T10:49:07.965Z,12.86
2023-04-19T10:51:37.465Z,12.86
2023-04-19T10:54:07.734Z,12.85
2023-04-19T10:56:59.476Z,13.14
2023-04-19T10:59:28.689Z,13.02
2023-04-19T11:01:59.848Z,13.09
2023-04-19T11:05:05.204Z,13.02
2023-04-19T11:07:41.148Z,12.82
2023-04-19T11:10:12.051Z,12.97
2023-04-19T11:12:44.917Z,13.34
2023-04-19T11:15:13.761Z,13.41
2023-04-19T11:17:43.159Z,13.26
2023-04-19T11:20:12.068Z,12.72
2023-04-19T11:22:42.695Z,12.67
2023-04-19T11:25:13.067Z,13.06
2023-04-19T11:27:43.309Z,13.37
2023-04-19T11:30:13.201Z,13.57
2023-04-19T11:32:48.956Z,13.75
2023-04-19T11:35:20.810Z,13.53
2023-04-19T11:37:50.316Z,13.41
2023-04-19T11:40:19.654Z,13.61
2023-04-19T11:42:54.423Z,13.34
2023-04-19T11:45:31.124Z,13.66
2023-04-19T11:48:02.236Z,13.89
2023-04-19T11:50:35.328Z,13.76
2023-04-19T11:53:18.216Z,14.16
2023-04-19T11:55:47.779Z,14.28
2023-04-19T11:58:26.023Z,13.76
2023-04-19T12:00:54.024Z,13.89
2023-04-19T12:03:26.345Z,14.12
2023-04-19T12:05:57.328Z,14.13
2023-04-19T12:08:33.057Z,14.05
2023-04-19T12:11:03.762Z,14.35
2023-04-19T12:13:32.878Z,14.45
2023-04-19T12:16:01.663Z,14.16
2023-04-19T12:18:44.925Z,14.12
2023-04-19T12:21:24.717Z,14.54
2023-04-19T12:23:56.006Z,15.06
2023-04-19T12:26:24.032Z,14.86
2023-04-19T12:28:51.978Z,15.07
2023-04-19T12:31:21.363Z,15.31
2023-04-19T12:33:51.524Z,15.63
2023-04-19T12:36:20.108Z,15.99
2023-04-19T12:38:48.599Z,16.87
2023-04-19T12:41:16.620Z,17.77
2023-04-19T12:43:44.565Z,18.72
2023-04-19T12:46:14.061Z,18.51
2023-04-19T12:48:41.980Z,18.20
2023-04-19T12:51:11.741Z,18.80
2023-04-19T12:53:40.984Z,18.77
2023-04-19T12:56:08.950Z,18.86
2023-04-19T12:58:37.318Z,19.01
2023-04-19T13:01:06.695Z,18.69
2023-04-19T13:03:36.624Z,19.07
2023-04-19T13:06:06.349Z,19.04
2023-04-19T13:08:44.924Z,19.15
2023-04-19T13:11:18.020Z,20.31
2023-04-19T13:13:46.072Z,19.90
2023-04-19T13:16:14.067Z,20.21
2023-04-19T13:18:42.895Z,19.78
2023-04-19T13:21:10.894Z,19.91
2023-04-19T13:23:40.486Z,18.53
2023-04-19T13:26:09.506Z,20.55
2023-04-19T13:28:37.470Z,20.53
2023-04-19T13:31:06.787Z,17.53
2023-04-19T13:33:35.485Z,19.03
2023-04-19T13:36:03.919Z,17.66
2023-04-19T13:38:31.876Z,16.99
2023-04-19T13:41:02.296Z,18.97
2023-04-19T13:43:30.260Z,19.87
2023-04-19T13:45:58.256Z,20.20
2023-04-19T13:48:29.330Z,21.47
2023-04-19T13:50:58.233Z,21.67
2023-04-19T13:53:28.997Z,20.36
2023-04-19T13:55:59.002Z,18.17
2023-04-19T13:58:28.374Z,17.96
2023-04-19T14:00:56.584Z,19.83
2023-04-19T14:03:25.986Z,21.42
2023-04-19T14:05:54.056Z,19.94
2023-04-19T14:08:22.452Z,21.15
2023-04-19T14:10:51.987Z,20.91
2023-04-19T14:13:20.340Z,19.42
2023-04-19T14:15:50.082Z,19.52
2023-04-19T14:18:19.932Z,16.96
2023-04-19T14:20:47.901Z,20.48
2023-04-19T14:23:16.304Z,20.46
2023-04-19T14:25:44.671Z,20.40
2023-04-19T14:28:13.464Z,17.02
2023-04-19T14:30:41.875Z,20.07
2023-04-19T14:33:11.961Z,21.09
2023-04-19T14:35:42.347Z,21.66
2023-04-19T14:38:11.666Z,21.07
2023-04-19T14:40:39.633Z,21.63
2023-04-19T14:43:09.524Z,17.45
2023-04-19T14:45:37.880Z,15.82
2023-04-19T14:48:07.140Z,16.21
2023-04-19T14:50:36.507Z,18.08
2023-04-19T14:53:05.136Z,17.97
2023-04-19T14:55:33.036Z,19.98
2023-04-19T14:58:01.349Z,17.87
2023-04-19T15:00:30.184Z,15.57
2023-04-19T15:02:58.323Z,14.79
2023-04-19T15:05:28.546Z,15.13
2023-04-19T15:07:59.049Z,14.45
2023-04-19T15:10:27.072Z,14.62
2023-04-19T15:12:55.002Z,15.41
2023-04-19T15:15:24.409Z,15.21
2023-04-19T15:17:52.403Z,18.28
2023-04-19T15:20:20.908Z,18.76
2023-04-19T15:22:49.341Z,16.61
2023-04-19T15:25:19.048Z,15.34
2023-04-19T15:27:48.264Z,14.69
2023-04-19T15:30:16.938Z,14.65
2023-04-19T15:32:45.002Z,14.37
2023-04-19T15:35:14.067Z,14.30
2023-04-19T15:37:43.799Z,14.16
2023-04-19T15:40:14.939Z,14.57
2023-04-19T15:42:44.268Z,16.54
2023-04-19T15:45:12.643Z,17.69
2023-04-19T15:47:41.559Z,16.34
2023-04-19T15:50:10.629Z,14.33
2023-04-19T15:52:39.040Z,13.54
2023-04-19T15:55:07.919Z,13.50
2023-04-19T15:57:35.862Z,13.79
2023-04-19T16:00:09.667Z,14.18
2023-04-19T16:02:40.827Z,14.71
2023-04-19T16:05:10.377Z,15.14
2023-04-19T16:07:38.314Z,14.49
2023-04-19T16:10:08.086Z,14.27
2023-04-19T16:12:37.945Z,13.55
2023-04-19T16:15:09.133Z,13.76
2023-04-19T16:17:38.036Z,15.44
2023-04-19T16:20:06.914Z,14.34
2023-04-19T16:22:35.292Z,14.95
2023-04-19T16:25:04.153Z,14.64
2023-04-19T16:27:32.088Z,14.44
2023-04-19T16:30:00.474Z,13.59
2023-04-19T16:32:30.939Z,13.58
2023-04-19T16:34:59.863Z,12.89
2023-04-19T16:37:27.802Z,12.65
2023-04-19T16:39:56.780Z,12.67
2023-04-19T16:42:24.778Z,14.76
2023-04-19T16:44:52.714Z,16.35
2023-04-19T16:47:22.333Z,16.42
2023-04-19T16:49:51.656Z,16.71
2023-04-19T16:52:19.905Z,16.35
2023-04-19T16:54:48.283Z,14.83
2023-04-19T16:57:16.209Z,14.45
2023-04-19T16:59:44.753Z,13.82
2023-04-19T17:02:13.239Z,13.55
2023-04-19T17:04:41.477Z,13.78
2023-04-19T17:07:11.661Z,13.50
2023-04-19T17:09:39.997Z,13.09
2023-04-19T17:12:08.452Z,12.69
2023-04-19T17:14:37.210Z,12.68
2023-04-19T17:17:05.662Z,12.40
2023-04-19T17:19:34.097Z,12.30
2023-04-19T17:22:05.840Z,12.19
2023-04-19T17:24:35.453Z,12.09
2023-04-19T17:27:04.406Z,11.93
2023-04-19T17:29:32.538Z,12.00
2023-04-19T17:32:01.420Z,11.98
2023-04-19T17:34:29.897Z,11.82
2023-04-19T17:36:58.399Z,11.85
2023-04-19T17:39:27.960Z,11.74
2023-04-19T17:41:57.988Z,11.64
2023-04-19T17:44:26.243Z,11.72
2023-04-19T17:46:54.160Z,11.77
2023-04-19T17:49:23.072Z,11.75
2023-04-19T17:51:51.127Z,11.47
2023-04-19T17:54:20.658Z,11.65
2023-04-19T17:56:49.688Z,11.44
2023-04-19T17:59:19.178Z,11.43
2023-04-19T18:01:47.463Z,11.36
2023-04-19T18:04:18.467Z,11.29
2023-04-19T18:06:46.806Z,11.26
2023-04-19T18:09:15.053Z,11.31
2023-04-19T18:11:44.120Z,11.24
2023-04-19T18:14:12.002Z,11.11
2023-04-19T18:16:41.744Z,11.08
2023-04-19T18:19:10.116Z,11.01
2023-04-19T18:21:38.552Z,10.95
2023-04-19T18:24:07.711Z,10.88
2023-04-19T18:26:40.410Z,10.85
2023-04-19T18:29:08.486Z,10.79
2023-04-19T18:31:37.117Z,10.71
2023-04-19T18:34:06.878Z,10.64
2023-04-19T18:36:36.757Z,10.53
2023-04-19T18:39:04.813Z,10.57
2023-04-19T18:41:33.582Z,10.51
2023-04-19T18:46:34.852Z,10.51
2023-04-19T18:49:02.878Z,10.51
2023-04-19T18:51:32.921Z,10.54
2023-04-19T18:54:01.568Z,10.51
2023-04-19T18:59:01.653Z,10.56
2023-04-19T19:01:30.434Z,10.58
2023-04-19T19:04:27.929Z,10.64
2023-04-19T19:06:48.830Z,10.64
2023-04-19T19:09:17.276Z,10.64
2023-04-19T19:11:56.068Z,10.67
2023-04-19T19:14:25.365Z,10.72
2023-04-19T19:16:53.759Z,10.65
2023-04-19T19:19:22.708Z,10.67
2023-04-19T19:21:52.725Z,10.79
2023-04-19T19:24:21.811Z,10.69
2023-04-19T19:26:49.796Z,10.75
2023-04-19T19:29:22.560Z,10.69
2023-04-19T19:31:51.672Z,10.69
2023-04-19T19:34:28.752Z,10.71
2023-04-19T19:37:00.996Z,10.61
2023-04-19T19:39:30.025Z,10.56
2023-04-19T19:42:05.744Z,10.53
2023-04-19T19:44:34.901Z,10.41
2023-04-19T19:47:08.354Z,10.33
2023-04-19T19:52:11.646Z,10.19
2023-04-19T19:54:40.633Z,10.15
2023-04-19T19:58:06.917Z,10.05
2023-04-19T20:00:08.412Z,9.99
2023-04-19T20:02:54.908Z,9.98
2023-04-19T20:05:25.532Z,9.85
2023-04-19T20:08:06.074Z,9.80
2023-04-19T20:10:35.329Z,9.81
2023-04-19T20:13:03.469Z,9.73
2023-04-19T20:15:31.623Z,9.63
2023-04-19T20:18:00.330Z,9.57
2023-04-19T20:20:28.403Z,9.61
2023-04-19T20:22:57.667Z,9.51
2023-04-19T20:25:27.318Z,9.53
2023-04-19T20:27:55.309Z,9.46
2023-04-19T20:30:24.212Z,9.42
2023-04-19T20:32:52.205Z,9.43
2023-04-19T20:35:21.181Z,9.36
2023-04-19T20:37:52.817Z,9.28
2023-04-19T20:40:23.006Z,9.20
2023-04-19T20:42:51.500Z,9.08
2023-04-19T20:45:19.946Z,9.12
2023-04-19T20:47:48.604Z,9.09
2023-04-19T20:50:16.546Z,9.08
2023-04-19T20:52:46.752Z,9.23
2023-04-19T20:55:15.365Z,9.26
2023-04-19T20:57:45.147Z,9.19
2023-04-19T21:00:17.239Z,9.22
2023-04-19T21:02:45.764Z,9.25
2023-04-19T21:05:13.830Z,9.19
2023-04-19T21:07:42.786Z,9.16
2023-04-19T21:10:11.475Z,9.15
2023-04-19T21:12:39.984Z,9.12
2023-04-19T21:15:12.454Z,9.19
2023-04-19T21:17:41.147Z,9.22
2023-04-19T21:20:14.579Z,9.18
2023-04-19T21:22:44.465Z,9.09
2023-04-19T21:25:13.828Z,9.05
2023-04-19T21:27:43.642Z,9.07
2023-04-19T21:30:14.243Z,9.04
2023-04-19T21:33:02.877Z,9.08
2023-04-19T21:35:30.905Z,9.01
2023-04-19T21:37:58.819Z,9.12
2023-04-19T21:40:27.748Z,9.11
2023-04-19T21:42:55.723Z,9.01
2023-04-19T21:45:25.822Z,9.00
2023-04-19T21:47:53.560Z,8.98
2023-04-19T21:50:22.434Z,8.94
2023-04-19T21:52:50.400Z,8.68
2023-04-19T21:55:19.277Z,8.56
2023-04-19T21:57:48.116Z,8.50
2023-04-19T22:00:17.111Z,8.29
2023-04-19T22:02:48.298Z,8.28
2023-04-19T22:05:16.706Z,8.32
2023-04-19T22:07:45.496Z,8.29
2023-04-19T22:10:14.568Z,8.31
2023-04-19T22:12:55.126Z,8.40
2023-04-19T22:15:27.875Z,8.54
2023-04-19T22:17:58.202Z,8.57
2023-04-19T22:20:27.130Z,8.53
2023-04-19T22:22:55.617Z,8.59
2023-04-19T22:25:23.638Z,8.67
2023-04-19T22:27:51.616Z,8.70
2023-04-19T22:30:20.537Z,8.53
2023-04-19T22:32:48.476Z,8.61
2023-04-19T22:35:20.121Z,8.64
2023-04-19T22:37:50.031Z,8.71
2023-04-19T22:40:17.999Z,8.73
2023-04-19T22:42:46.858Z,8.61
2023-04-19T22:45:14.848Z,8.70
2023-04-19T22:47:43.848Z,8.74
2023-04-19T22:50:12.406Z,8.75
2023-04-19T22:52:42.638Z,8.81
2023-04-19T22:55:12.084Z,8.71
2023-04-19T22:57:39.984Z,8.67
2023-04-19T23:00:10.665Z,8.67
2023-04-19T23:02:40.017Z,8.59
2023-04-19T23:05:08.614Z,8.56
2023-04-19T23:07:39.898Z,8.64
2023-04-19T23:10:11.372Z,8.77
2023-04-19T23:12:40.523Z,8.73
2023-04-19T23:15:10.970Z,8.64
2023-04-19T23:17:40.837Z,8.67
2023-04-19T23:20:11.195Z,8.64
2023-04-19T23:22:40.484Z,8.67
2023-04-19T23:25:10.693Z,8.45
2023-04-19T23:27:39.138Z,8.53
2023-04-19T23:30:09.397Z,8.38
2023-04-19T23:32:37.422Z,8.47
2023-04-19T23:35:05.899Z,8.53
2023-04-19T23:37:34.928Z,8.39
2023-04-19T23:40:03.031Z,8.31
2023-04-19T23:42:32.918Z,8.36
2023-04-19T23:45:01.684Z,8.33
2023-04-19T23:47:30.689Z,8.49
2023-04-19T23:49:59.499Z,8.46
2023-04-19T23:52:27.589Z,8.38
2023-04-19T23:54:56.890Z,8.29
2023-04-19T23:57:25.752Z,8.33
2023-04-19T23:59:55.005Z,8.32
